sensor_id;sensor_type;location;lat;lon;timestamp;pressure;altitude;pressure_sealevel;temperature;humidity
6435;BME280;3250;42.694;23.278;2022-11-18T00:02:00;93812.38;;;8.49;98.51
6435;BME280;3250;42.694;23.278;2022-11-18T00:04:25;93810.09;;;8.52;98.17
6435;BME280;3250;42.694;23.278;2022-11-18T00:06:51;93811.94;;;8.52;98.33
6435;BME280;3250;42.694;23.278;2022-11-18T00:09:16;93809.19;;;8.47;97.95
6435;BME280;3250;42.694;23.278;2022-11-18T00:11:41;93810.00;;;8.47;97.31
6435;BME280;3250;42.694;23.278;2022-11-18T00:14:25;93812.47;;;8.42;97.59
6435;BME280;3250;42.694;23.278;2022-11-18T00:16:52;93814.50;;;8.40;97.52
6435;BME280;3250;42.694;23.278;2022-11-18T00:19:19;93811.19;;;8.33;96.77
6435;BME280;3250;42.694;23.278;2022-11-18T00:21:45;93775.38;;;8.09;97.12
6435;BME280;3250;42.694;23.278;2022-11-18T00:24:11;93799.03;;;8.20;97.63
6435;BME280;3250;42.694;23.278;2022-11-18T00:26:36;93809.00;;;8.30;97.32
6435;BME280;3250;42.694;23.278;2022-11-18T00:29:03;93807.81;;;8.26;97.08
6435;BME280;3250;42.694;23.278;2022-11-18T00:31:29;93814.44;;;8.28;96.97
6435;BME280;3250;42.694;23.278;2022-11-18T00:33:54;93814.88;;;8.25;97.43
6435;BME280;3250;42.694;23.278;2022-11-18T00:36:20;93808.25;;;8.23;97.44
6435;BME280;3250;42.694;23.278;2022-11-18T00:38:45;93814.09;;;8.25;97.28
6435;BME280;3250;42.694;23.278;2022-11-18T00:41:13;93811.69;;;8.23;97.10
6435;BME280;3250;42.694;23.278;2022-11-18T00:43:39;93808.84;;;8.25;97.33
6435;BME280;3250;42.694;23.278;2022-11-18T00:46:09;93811.03;;;8.28;97.26
6435;BME280;3250;42.694;23.278;2022-11-18T00:48:35;93815.84;;;8.31;96.82
6435;BME280;3250;42.694;23.278;2022-11-18T00:51:11;93799.38;;;8.24;96.28
6435;BME280;3250;42.694;23.278;2022-11-18T00:53:37;93816.50;;;8.26;96.10
6435;BME280;3250;42.694;23.278;2022-11-18T00:56:03;93809.44;;;8.27;96.52
6435;BME280;3250;42.694;23.278;2022-11-18T00:58:28;93807.06;;;8.07;96.10
6435;BME280;3250;42.694;23.278;2022-11-18T01:00:54;93811.72;;;8.05;96.97
6435;BME280;3250;42.694;23.278;2022-11-18T01:03:19;93807.06;;;8.07;97.35
6435;BME280;3250;42.694;23.278;2022-11-18T01:05:45;93775.41;;;7.90;96.68
6435;BME280;3250;42.694;23.278;2022-11-18T01:08:12;93811.72;;;8.05;96.93
6435;BME280;3250;42.694;23.278;2022-11-18T01:10:38;93812.75;;;8.04;96.45
6435;BME280;3250;42.694;23.278;2022-11-18T01:13:06;93810.91;;;8.05;96.41
6435;BME280;3250;42.694;23.278;2022-11-18T01:15:47;93809.75;;;8.01;96.47
6435;BME280;3250;42.694;23.278;2022-11-18T01:18:14;93816.03;;;8.00;96.25
6435;BME280;3250;42.694;23.278;2022-11-18T01:20:40;93812.81;;;7.97;96.72
6435;BME280;3250;42.694;23.278;2022-11-18T01:23:05;93768.03;;;7.69;96.28
6435;BME280;3250;42.694;23.278;2022-11-18T01:25:31;93809.06;;;7.93;96.46
6435;BME280;3250;42.694;23.278;2022-11-18T01:27:56;93773.03;;;7.71;96.51
6435;BME280;3250;42.694;23.278;2022-11-18T01:30:22;93815.09;;;7.94;95.96
6435;BME280;3250;42.694;23.278;2022-11-18T01:32:47;93815.09;;;7.94;96.01
6435;BME280;3250;42.694;23.278;2022-11-18T01:35:13;93814.28;;;7.93;96.07
6435;BME280;3250;42.694;23.278;2022-11-18T01:37:38;93815.44;;;7.97;96.42
6435;BME280;3250;42.694;23.278;2022-11-18T01:40:06;93812.59;;;7.99;96.90
6435;BME280;3250;42.694;23.278;2022-11-18T01:42:31;93812.16;;;8.02;96.69
6435;BME280;3250;42.694;23.278;2022-11-18T01:47:37;93792.63;;;7.86;95.71
6435;BME280;3250;42.694;23.278;2022-11-18T01:50:05;93799.94;;;7.96;95.87
6435;BME280;3250;42.694;23.278;2022-11-18T01:52:32;93821.94;;;7.95;96.19
6435;BME280;3250;42.694;23.278;2022-11-18T01:55:05;93815.09;;;7.94;96.72
6435;BME280;3250;42.694;23.278;2022-11-18T01:57:31;93807.88;;;7.89;96.26
6435;BME280;3250;42.694;23.278;2022-11-18T02:00:00;93809.13;;;7.87;96.72
6435;BME280;3250;42.694;23.278;2022-11-18T02:02:30;93803.94;;;7.80;97.17
6435;BME280;3250;42.694;23.278;2022-11-18T02:04:57;93809.66;;;7.77;97.88
6435;BME280;3250;42.694;23.278;2022-11-18T02:07:23;93796.97;;;7.74;97.91
6435;BME280;3250;42.694;23.278;2022-11-18T02:09:49;93814.59;;;7.85;97.74
6435;BME280;3250;42.694;23.278;2022-11-18T02:12:17;93805.84;;;7.91;97.51
6435;BME280;3250;42.694;23.278;2022-11-18T02:14:44;93813.03;;;7.96;97.57
6435;BME280;3250;42.694;23.278;2022-11-18T02:31:19;93806.28;;;7.88;98.20
6435;BME280;3250;42.694;23.278;2022-11-18T02:33:53;93789.00;;;7.69;98.51
6435;BME280;3250;42.694;23.278;2022-11-18T02:36:42;93793.03;;;7.83;98.47
6435;BME280;3250;42.694;23.278;2022-11-18T02:39:18;93792.38;;;7.88;97.48
6435;BME280;3250;42.694;23.278;2022-11-18T02:41:46;93793.03;;;7.83;97.74
6435;BME280;3250;42.694;23.278;2022-11-18T02:44:15;93802.72;;;7.83;97.80
6435;BME280;3250;42.694;23.278;2022-11-18T02:46:44;93790.72;;;7.75;97.26
6435;BME280;3250;42.694;23.278;2022-11-18T02:49:21;93803.75;;;7.82;97.03
6435;BME280;3250;42.694;23.278;2022-11-18T02:51:49;93793.25;;;7.82;97.16
6435;BME280;3250;42.694;23.278;2022-11-18T02:54:18;93773.13;;;7.64;96.91
6435;BME280;3250;42.694;23.278;2022-11-18T02:56:45;93798.16;;;7.78;97.34
6435;BME280;3250;42.694;23.278;2022-11-18T02:59:16;93796.47;;;7.66;97.06
6435;BME280;3250;42.694;23.278;2022-11-18T03:01:42;93810.38;;;7.66;96.80
6435;BME280;3250;42.694;23.278;2022-11-18T03:04:07;93804.75;;;7.44;98.35
6435;BME280;3250;42.694;23.278;2022-11-18T03:06:38;93800.59;;;7.37;98.95
6435;BME280;3250;42.694;23.278;2022-11-18T03:09:14;93805.72;;;7.50;98.27
6435;BME280;3250;42.694;23.278;2022-11-18T03:11:53;93799.88;;;7.48;98.05
6435;BME280;3250;42.694;23.278;2022-11-18T03:22:10;93797.91;;;7.62;97.23
6435;BME280;3250;42.694;23.278;2022-11-18T03:24:41;93801.13;;;7.64;96.94
6435;BME280;3250;42.694;23.278;2022-11-18T03:27:15;93799.53;;;7.63;97.84
6435;BME280;3250;42.694;23.278;2022-11-18T03:29:55;93805.47;;;7.70;97.41
6435;BME280;3250;42.694;23.278;2022-11-18T03:32:27;93786.09;;;7.59;98.20
6435;BME280;3250;42.694;23.278;2022-11-18T03:35:01;93794.22;;;7.69;98.87
6435;BME280;3250;42.694;23.278;2022-11-18T03:37:28;93803.53;;;7.83;98.54
6435;BME280;3250;42.694;23.278;2022-11-18T03:40:00;93792.97;;;7.90;98.28
6435;BME280;3250;42.694;23.278;2022-11-18T03:42:34;93799.59;;;7.92;98.49
6435;BME280;3250;42.694;23.278;2022-11-18T03:45:08;93795.78;;;7.88;98.72
6435;BME280;3250;42.694;23.278;2022-11-18T03:47:40;93796.81;;;7.87;98.50
6435;BME280;3250;42.694;23.278;2022-11-18T03:50:11;93783.66;;;7.94;99.12
6435;BME280;3250;42.694;23.278;2022-11-18T03:52:38;93758.78;;;7.67;98.64
6435;BME280;3250;42.694;23.278;2022-11-18T03:55:10;93784.53;;;7.70;99.32
6435;BME280;3250;42.694;23.278;2022-11-18T04:00:14;93751.66;;;7.74;100.00
6435;BME280;3250;42.694;23.278;2022-11-18T04:02:40;93775.78;;;7.94;100.00
6435;BME280;3250;42.694;23.278;2022-11-18T04:05:08;93778.53;;;7.99;99.89
6435;BME280;3250;42.694;23.278;2022-11-18T04:07:55;93776.84;;;8.05;99.78
6435;BME280;3250;42.694;23.278;2022-11-18T04:10:26;93782.34;;;8.15;99.50
6435;BME280;3250;42.694;23.278;2022-11-18T04:13:00;93778.72;;;8.16;99.58
6435;BME280;3250;42.694;23.278;2022-11-18T04:15:29;93779.19;;;8.24;99.25
6435;BME280;3250;42.694;23.278;2022-11-18T04:17:55;93787.81;;;8.31;99.14
6435;BME280;3250;42.694;23.278;2022-11-18T04:20:21;93747.72;;;8.13;99.25
6435;BME280;3250;42.694;23.278;2022-11-18T04:22:47;93775.75;;;8.42;99.19
6435;BME280;3250;42.694;23.278;2022-11-18T04:25:13;93788.06;;;8.42;99.27
6435;BME280;3250;42.694;23.278;2022-11-18T04:27:39;93796.88;;;8.47;99.83
6435;BME280;3250;42.694;23.278;2022-11-18T04:30:05;93786.03;;;8.44;99.83
6435;BME280;3250;42.694;23.278;2022-11-18T04:32:31;93788.44;;;8.45;100.00
6435;BME280;3250;42.694;23.278;2022-11-18T04:34:57;93791.16;;;8.39;100.00
6435;BME280;3250;42.694;23.278;2022-11-18T04:37:23;93785.84;;;8.27;100.00
6435;BME280;3250;42.694;23.278;2022-11-18T04:39:48;93804.16;;;8.45;100.00
6435;BME280;3250;42.694;23.278;2022-11-18T04:42:14;93774.31;;;8.28;100.00
6435;BME280;3250;42.694;23.278;2022-11-18T04:44:39;93813.75;;;8.51;100.00
6435;BME280;3250;42.694;23.278;2022-11-18T04:47:05;93799.50;;;8.47;100.00
6435;BME280;3250;42.694;23.278;2022-11-18T04:49:32;93783.03;;;8.40;100.00
6435;BME280;3250;42.694;23.278;2022-11-18T04:51:58;93812.94;;;8.51;100.00
6435;BME280;3250;42.694;23.278;2022-11-18T04:54:24;93809.09;;;8.53;100.00
6435;BME280;3250;42.694;23.278;2022-11-18T04:56:51;93813.97;;;8.50;100.00
6435;BME280;3250;42.694;23.278;2022-11-18T04:59:20;93816.38;;;8.51;100.00
6435;BME280;3250;42.694;23.278;2022-11-18T05:01:45;93781.91;;;8.36;100.00
6435;BME280;3250;42.694;23.278;2022-11-18T05:04:13;93812.72;;;8.52;100.00
6435;BME280;3250;42.694;23.278;2022-11-18T05:06:39;93788.88;;;8.42;100.00
6435;BME280;3250;42.694;23.278;2022-11-18T05:09:04;93807.59;;;8.46;100.00
6435;BME280;3250;42.694;23.278;2022-11-18T05:11:31;93808.25;;;8.41;100.00
6435;BME280;3250;42.694;23.278;2022-11-18T05:14:15;93800.38;;;8.41;100.00
6435;BME280;3250;42.694;23.278;2022-11-18T05:16:41;93810.53;;;8.49;100.00
6435;BME280;3250;42.694;23.278;2022-11-18T05:19:06;93817.28;;;8.45;100.00
6435;BME280;3250;42.694;23.278;2022-11-18T05:21:32;93819.19;;;8.38;100.00
6435;BME280;3250;42.694;23.278;2022-11-18T05:23:58;93816.63;;;8.31;100.00
6435;BME280;3250;42.694;23.278;2022-11-18T05:26:24;93816.72;;;8.25;100.00
6435;BME280;3250;42.694;23.278;2022-11-18T05:28:50;93811.38;;;8.02;100.00
6435;BME280;3250;42.694;23.278;2022-11-18T05:31:16;93815.94;;;8.06;100.00
6435;BME280;3250;42.694;23.278;2022-11-18T05:33:42;93808.59;;;7.96;100.00
6435;BME280;3250;42.694;23.278;2022-11-18T05:36:13;93818.06;;;7.97;100.00
6435;BME280;3250;42.694;23.278;2022-11-18T05:38:39;93808.53;;;8.03;100.00
6435;BME280;3250;42.694;23.278;2022-11-18T05:41:05;93820.53;;;7.92;100.00
6435;BME280;3250;42.694;23.278;2022-11-18T05:43:32;93821.56;;;7.91;100.00
6435;BME280;3250;42.694;23.278;2022-11-18T05:45:58;93817.22;;;7.85;100.00
6435;BME280;3250;42.694;23.278;2022-11-18T05:48:24;93804.81;;;7.92;100.00
6435;BME280;3250;42.694;23.278;2022-11-18T05:50:51;93810.34;;;8.03;100.00
6435;BME280;3250;42.694;23.278;2022-11-18T05:53:20;93820.22;;;8.19;100.00
6435;BME280;3250;42.694;23.278;2022-11-18T05:56:03;93813.97;;;8.20;100.00
6435;BME280;3250;42.694;23.278;2022-11-18T05:58:30;93814.44;;;8.28;100.00
6435;BME280;3250;42.694;23.278;2022-11-18T06:01:00;93816.31;;;8.40;100.00
6435;BME280;3250;42.694;23.278;2022-11-18T06:03:29;93810.66;;;8.43;100.00
6435;BME280;3250;42.694;23.278;2022-11-18T06:05:57;93813.31;;;8.54;100.00
6435;BME280;3250;42.694;23.278;2022-11-18T06:08:28;93813.66;;;8.58;100.00
6435;BME280;3250;42.694;23.278;2022-11-18T06:10:55;93820.41;;;8.65;100.00
6435;BME280;3250;42.694;23.278;2022-11-18T06:13:39;93823.28;;;8.76;100.00
6435;BME280;3250;42.694;23.278;2022-11-18T06:16:06;93818.59;;;8.78;100.00
6435;BME280;3250;42.694;23.278;2022-11-18T06:18:31;93819.09;;;8.86;100.00
6435;BME280;3250;42.694;23.278;2022-11-18T06:21:03;93811.88;;;8.70;100.00
6435;BME280;3250;42.694;23.278;2022-11-18T06:23:39;93803.63;;;8.66;100.00
6435;BME280;3250;42.694;23.278;2022-11-18T06:26:06;93812.63;;;8.59;100.00
6435;BME280;3250;42.694;23.278;2022-11-18T06:28:31;93797.47;;;8.61;100.00
6435;BME280;3250;42.694;23.278;2022-11-18T06:30:58;93800.34;;;8.71;100.00
6435;BME280;3250;42.694;23.278;2022-11-18T06:33:23;93813.94;;;8.80;100.00
6435;BME280;3250;42.694;23.278;2022-11-18T06:35:48;93806.06;;;8.80;100.00
6435;BME280;3250;42.694;23.278;2022-11-18T06:38:14;93778.53;;;8.59;100.00
6435;BME280;3250;42.694;23.278;2022-11-18T06:40:39;93805.47;;;8.66;100.00
6435;BME280;3250;42.694;23.278;2022-11-18T06:43:09;93782.75;;;8.60;100.00
6435;BME280;3250;42.694;23.278;2022-11-18T06:45:57;93805.81;;;8.69;100.00
6435;BME280;3250;42.694;23.278;2022-11-18T06:48:41;93796.66;;;8.60;100.00
6435;BME280;3250;42.694;23.278;2022-11-18T06:51:07;93797.38;;;8.67;100.00
6435;BME280;3250;42.694;23.278;2022-11-18T06:53:33;93805.56;;;8.59;100.00
6435;BME280;3250;42.694;23.278;2022-11-18T06:56:03;93777.69;;;8.35;100.00
6435;BME280;3250;42.694;23.278;2022-11-18T06:58:28;93796.78;;;8.54;100.00
6435;BME280;3250;42.694;23.278;2022-11-18T07:00:54;93802.13;;;8.59;100.00
6435;BME280;3250;42.694;23.278;2022-11-18T07:03:19;93810.69;;;8.66;100.00
6435;BME280;3250;42.694;23.278;2022-11-18T07:05:44;93817.22;;;8.75;100.00
6435;BME280;3250;42.694;23.278;2022-11-18T07:08:10;93806.88;;;8.92;100.00
6435;BME280;3250;42.694;23.278;2022-11-18T07:10:35;93810.31;;;9.04;100.00
6435;BME280;3250;42.694;23.278;2022-11-18T07:13:01;93799.81;;;9.04;100.00
6435;BME280;3250;42.694;23.278;2022-11-18T07:15:26;93795.13;;;8.94;100.00
6435;BME280;3250;42.694;23.278;2022-11-18T07:17:51;93786.69;;;9.04;100.00
6435;BME280;3250;42.694;23.278;2022-11-18T07:20:17;93783.75;;;9.24;100.00
6435;BME280;3250;42.694;23.278;2022-11-18T07:22:42;93764.88;;;9.27;100.00
6435;BME280;3250;42.694;23.278;2022-11-18T07:25:08;93776.88;;;9.34;100.00
6435;BME280;3250;42.694;23.278;2022-11-18T07:27:33;93781.00;;;9.30;100.00
6435;BME280;3250;42.694;23.278;2022-11-18T07:29:59;93787.50;;;9.39;100.00
6435;BME280;3250;42.694;23.278;2022-11-18T07:32:24;93779.13;;;9.54;100.00
6435;BME280;3250;42.694;23.278;2022-11-18T07:34:49;93780.16;;;9.65;100.00
6435;BME280;3250;42.694;23.278;2022-11-18T07:37:15;93761.53;;;9.66;100.00
6435;BME280;3250;42.694;23.278;2022-11-18T07:39:40;93777.03;;;9.79;100.00
6435;BME280;3250;42.694;23.278;2022-11-18T07:42:08;93783.81;;;9.75;100.00
6435;BME280;3250;42.694;23.278;2022-11-18T07:44:33;93780.81;;;9.72;100.00
6435;BME280;3250;42.694;23.278;2022-11-18T07:46:58;93772.78;;;9.90;100.00
6435;BME280;3250;42.694;23.278;2022-11-18T07:49:24;93778.44;;;10.10;100.00
6435;BME280;3250;42.694;23.278;2022-11-18T07:51:49;93770.06;;;10.25;100.00
6435;BME280;3250;42.694;23.278;2022-11-18T07:54:15;93753.66;;;10.35;100.00
6435;BME280;3250;42.694;23.278;2022-11-18T07:56:43;93754.97;;;10.49;100.00
6435;BME280;3250;42.694;23.278;2022-11-18T07:59:08;93787.47;;;10.71;100.00
6435;BME280;3250;42.694;23.278;2022-11-18T08:01:34;93798.78;;;10.72;100.00
6435;BME280;3250;42.694;23.278;2022-11-18T08:04:10;93808.09;;;10.63;100.00
6435;BME280;3250;42.694;23.278;2022-11-18T08:06:36;93810.47;;;10.64;100.00
6435;BME280;3250;42.694;23.278;2022-11-18T08:09:03;93820.13;;;10.58;100.00
6435;BME280;3250;42.694;23.278;2022-11-18T08:11:29;93816.69;;;10.58;100.00
6435;BME280;3250;42.694;23.278;2022-11-18T08:13:54;93821.16;;;10.29;100.00
6435;BME280;3250;42.694;23.278;2022-11-18T08:16:21;93792.47;;;10.16;100.00
6435;BME280;3250;42.694;23.278;2022-11-18T08:18:48;93805.13;;;10.31;100.00
6435;BME280;3250;42.694;23.278;2022-11-18T08:21:15;93779.94;;;10.18;100.00
6435;BME280;3250;42.694;23.278;2022-11-18T08:23:41;93794.06;;;10.29;100.00
6435;BME280;3250;42.694;23.278;2022-11-18T08:26:10;93793.16;;;10.23;100.00
6435;BME280;3250;42.694;23.278;2022-11-18T08:28:35;93788.94;;;10.22;100.00
6435;BME280;3250;42.694;23.278;2022-11-18T08:31:13;93768.91;;;10.21;100.00
6435;BME280;3250;42.694;23.278;2022-11-18T08:33:38;93788.38;;;10.20;100.00
6435;BME280;3250;42.694;23.278;2022-11-18T08:36:09;93771.66;;;10.14;100.00
6435;BME280;3250;42.694;23.278;2022-11-18T08:38:36;93751.81;;;10.18;100.00
6435;BME280;3250;42.694;23.278;2022-11-18T08:41:02;93756.53;;;10.33;100.00
6435;BME280;3250;42.694;23.278;2022-11-18T08:43:28;93758.94;;;10.35;100.00
6435;BME280;3250;42.694;23.278;2022-11-18T08:45:53;93748.28;;;10.58;100.00
6435;BME280;3250;42.694;23.278;2022-11-18T08:48:18;93757.53;;;10.77;100.00
6435;BME280;3250;42.694;23.278;2022-11-18T08:50:44;93757.53;;;10.94;100.00
6435;BME280;3250;42.694;23.278;2022-11-18T08:53:09;93748.78;;;10.88;100.00
6435;BME280;3250;42.694;23.278;2022-11-18T08:55:34;93726.75;;;10.78;100.00
6435;BME280;3250;42.694;23.278;2022-11-18T08:58:00;93729.22;;;10.68;100.00
6435;BME280;3250;42.694;23.278;2022-11-18T09:00:25;93719.25;;;10.70;100.00
6435;BME280;3250;42.694;23.278;2022-11-18T09:02:51;93700.25;;;10.84;100.00
6435;BME280;3250;42.694;23.278;2022-11-18T09:05:16;93708.06;;;11.13;100.00
6435;BME280;3250;42.694;23.278;2022-11-18T09:07:41;93709.81;;;11.24;100.00
6435;BME280;3250;42.694;23.278;2022-11-18T09:10:07;93710.19;;;11.32;100.00
6435;BME280;3250;42.694;23.278;2022-11-18T09:12:33;93719.75;;;11.60;100.00
6435;BME280;3250;42.694;23.278;2022-11-18T09:14:58;93709.25;;;11.82;99.46
6435;BME280;3250;42.694;23.278;2022-11-18T09:17:23;93712.03;;;11.97;97.29
6435;BME280;3250;42.694;23.278;2022-11-18T09:19:49;93713.88;;;11.97;97.49
6435;BME280;3250;42.694;23.278;2022-11-18T09:22:14;93699.94;;;12.28;97.76
6435;BME280;3250;42.694;23.278;2022-11-18T09:24:39;93696.69;;;12.80;97.81
6435;BME280;3250;42.694;23.278;2022-11-18T09:27:06;93710.78;;;12.91;92.27
6435;BME280;3250;42.694;23.278;2022-11-18T09:29:31;93703.72;;;13.01;93.34
6435;BME280;3250;42.694;23.278;2022-11-18T09:31:57;93694.78;;;13.44;93.50
6435;BME280;3250;42.694;23.278;2022-11-18T09:34:26;93656.47;;;13.52;91.04
6435;BME280;3250;42.694;23.278;2022-11-18T09:36:52;93676.56;;;13.58;88.76
6435;BME280;3250;42.694;23.278;2022-11-18T09:39:20;93682.59;;;13.38;90.20
6435;BME280;3250;42.694;23.278;2022-11-18T09:44:57;93639.91;;;13.14;90.85
6435;BME280;3250;42.694;23.278;2022-11-18T09:47:33;93650.56;;;13.30;91.21
6435;BME280;3250;42.694;23.278;2022-11-18T09:50:02;93642.19;;;13.58;89.68
6435;BME280;3250;42.694;23.278;2022-11-18T09:52:36;93654.66;;;13.68;87.72
6435;BME280;3250;42.694;23.278;2022-11-18T09:55:11;93624.28;;;13.65;86.93
6435;BME280;3250;42.694;23.278;2022-11-18T09:57:39;93643.91;;;13.89;87.69
6435;BME280;3250;42.694;23.278;2022-11-18T10:00:14;93636.78;;;14.05;86.70
6435;BME280;3250;42.694;23.278;2022-11-18T10:03:02;93637.59;;;14.11;85.79
6435;BME280;3250;42.694;23.278;2022-11-18T10:18:39;93634.75;;;14.43;84.93
6435;BME280;3250;42.694;23.278;2022-11-18T10:21:24;93629.19;;;14.39;82.99
6435;BME280;3250;42.694;23.278;2022-11-18T10:23:58;93613.31;;;14.39;82.10
6435;BME280;3250;42.694;23.278;2022-11-18T10:26:34;93622.31;;;14.48;81.03
6435;BME280;3250;42.694;23.278;2022-11-18T10:28:59;93608.28;;;14.48;81.20
6435;BME280;3250;42.694;23.278;2022-11-18T10:31:25;93564.84;;;14.49;81.32
6435;BME280;3250;42.694;23.278;2022-11-18T10:34:00;93605.31;;;14.80;81.70
6435;BME280;3250;42.694;23.278;2022-11-18T10:36:30;93580.16;;;14.72;82.33
6435;BME280;3250;42.694;23.278;2022-11-18T10:39:14;93587.88;;;14.79;80.14
6435;BME280;3250;42.694;23.278;2022-11-18T10:41:46;93594.97;;;14.93;79.91
6435;BME280;3250;42.694;23.278;2022-11-18T10:44:40;93582.25;;;15.00;79.53
6435;BME280;3250;42.694;23.278;2022-11-18T10:49:41;93582.75;;;15.13;78.73
6435;BME280;3250;42.694;23.278;2022-11-18T10:52:11;93581.66;;;15.19;78.38
6435;BME280;3250;42.694;23.278;2022-11-18T10:54:37;93578.75;;;15.05;77.37
6435;BME280;3250;42.694;23.278;2022-11-18T10:57:20;93568.97;;;15.05;77.44
6435;BME280;3250;42.694;23.278;2022-11-18T10:59:55;93563.41;;;15.07;78.18
6435;BME280;3250;42.694;23.278;2022-11-18T11:02:32;93572.97;;;15.03;78.25
6435;BME280;3250;42.694;23.278;2022-11-18T11:05:13;93553.06;;;15.05;78.29
6435;BME280;3250;42.694;23.278;2022-11-18T11:07:40;93569.69;;;15.26;76.50
6435;BME280;3250;42.694;23.278;2022-11-18T11:12:39;93558.03;;;15.22;77.48
6435;BME280;3250;42.694;23.278;2022-11-18T11:20:35;93539.69;;;15.31;78.72
6435;BME280;3250;42.694;23.278;2022-11-18T11:23:00;93543.31;;;15.50;78.63
6435;BME280;3250;42.694;23.278;2022-11-18T11:25:40;93522.38;;;15.48;78.36
6435;BME280;3250;42.694;23.278;2022-11-18T11:44:52;93531.03;;;15.20;78.77
6435;BME280;3250;42.694;23.278;2022-11-18T11:56:15;93515.69;;;15.12;80.63
6435;BME280;3250;42.694;23.278;2022-11-18T12:04:33;93519.91;;;15.18;80.21
6435;BME280;3250;42.694;23.278;2022-11-18T12:07:05;93517.81;;;15.10;80.19
6435;BME280;3250;42.694;23.278;2022-11-18T12:12:22;93517.84;;;15.00;81.30
6435;BME280;3250;42.694;23.278;2022-11-18T12:18:16;93481.59;;;14.80;82.06
6435;BME280;3250;42.694;23.278;2022-11-18T12:20:50;93493.75;;;14.91;81.52
6435;BME280;3250;42.694;23.278;2022-11-18T12:23:26;93486.09;;;14.80;82.13
6435;BME280;3250;42.694;23.278;2022-11-18T12:25:55;93464.91;;;14.80;81.75
6435;BME280;3250;42.694;23.278;2022-11-18T12:28:28;93471.81;;;14.86;83.33
6435;BME280;3250;42.694;23.278;2022-11-18T12:36:34;93473.88;;;14.89;80.98
6435;BME280;3250;42.694;23.278;2022-11-18T12:41:56;93470.47;;;14.83;79.67
6435;BME280;3250;42.694;23.278;2022-11-18T12:44:42;93455.34;;;14.89;79.21
6435;BME280;3250;42.694;23.278;2022-11-18T12:47:13;93472.81;;;14.90;77.12
6435;BME280;3250;42.694;23.278;2022-11-18T12:52:44;93445.50;;;15.04;78.85
6435;BME280;3250;42.694;23.278;2022-11-18T12:55:30;93444.69;;;15.04;78.75
6435;BME280;3250;42.694;23.278;2022-11-18T12:57:57;93418.53;;;14.87;78.96
6435;BME280;3250;42.694;23.278;2022-11-18T13:02:52;93434.09;;;15.04;79.57
6435;BME280;3250;42.694;23.278;2022-11-18T13:07:49;93408.38;;;15.04;77.99
6435;BME280;3250;42.694;23.278;2022-11-18T13:10:38;93405.69;;;15.09;75.71
6435;BME280;3250;42.694;23.278;2022-11-18T13:13:04;93411.72;;;15.20;74.60
6435;BME280;3250;42.694;23.278;2022-11-18T13:15:41;93410.09;;;15.24;73.19
6435;BME280;3250;42.694;23.278;2022-11-18T13:18:24;93401.03;;;15.35;69.35
6435;BME280;3250;42.694;23.278;2022-11-18T13:20:55;93405.69;;;15.54;69.23
6435;BME280;3250;42.694;23.278;2022-11-18T13:26:11;93404.09;;;16.15;63.99
6435;BME280;3250;42.694;23.278;2022-11-18T13:31:36;93406.59;;;16.54;63.09
6435;BME280;3250;42.694;23.278;2022-11-18T13:34:15;93394.03;;;16.65;61.89
6435;BME280;3250;42.694;23.278;2022-11-18T13:36:43;93387.97;;;16.83;60.90
6435;BME280;3250;42.694;23.278;2022-11-18T13:39:19;93362.72;;;16.81;61.29
6435;BME280;3250;42.694;23.278;2022-11-18T13:42:00;93369.94;;;16.99;60.06
6435;BME280;3250;42.694;23.278;2022-11-18T13:44:31;93379.72;;;17.04;58.64
6435;BME280;3250;42.694;23.278;2022-11-18T13:47:20;93360.81;;;17.05;59.64
6435;BME280;3250;42.694;23.278;2022-11-18T13:49:55;93371.81;;;16.98;58.90
6435;BME280;3250;42.694;23.278;2022-11-18T13:52:35;93404.13;;;17.06;59.35
6435;BME280;3250;42.694;23.278;2022-11-18T13:55:06;93388.47;;;17.04;59.54
6435;BME280;3250;42.694;23.278;2022-11-18T13:57:34;93389.75;;;17.07;59.28
6435;BME280;3250;42.694;23.278;2022-11-18T14:00:05;93382.88;;;17.06;59.70
6435;BME280;3250;42.694;23.278;2022-11-18T14:02:31;93374.84;;;17.11;60.26
6435;BME280;3250;42.694;23.278;2022-11-18T14:05:02;93375.25;;;17.18;59.14
6435;BME280;3250;42.694;23.278;2022-11-18T14:07:30;93380.72;;;17.26;58.72
6435;BME280;3250;42.694;23.278;2022-11-18T14:10:07;93369.81;;;17.28;58.68
6435;BME280;3250;42.694;23.278;2022-11-18T14:12:34;93371.44;;;17.24;58.74
6435;BME280;3250;42.694;23.278;2022-11-18T14:15:31;93369.84;;;17.23;59.05
6435;BME280;3250;42.694;23.278;2022-11-18T14:18:00;93352.25;;;17.08;57.85
6435;BME280;3250;42.694;23.278;2022-11-18T14:20:28;93351.38;;;17.13;57.38
6435;BME280;3250;42.694;23.278;2022-11-18T14:23:02;93368.78;;;17.24;57.69
6435;BME280;3250;42.694;23.278;2022-11-18T14:25:34;93378.56;;;17.28;57.24
6435;BME280;3250;42.694;23.278;2022-11-18T14:30:41;93382.81;;;17.29;57.79
6435;BME280;3250;42.694;23.278;2022-11-18T14:33:21;93360.25;;;17.27;57.53
6435;BME280;3250;42.694;23.278;2022-11-18T14:38:21;93364.75;;;17.26;57.16
6435;BME280;3250;42.694;23.278;2022-11-18T14:40:56;93373.25;;;17.28;57.74
6435;BME280;3250;42.694;23.278;2022-11-18T14:43:22;93379.38;;;17.29;57.99
6435;BME280;3250;42.694;23.278;2022-11-18T14:45:48;93366.25;;;17.14;58.55
6435;BME280;3250;42.694;23.278;2022-11-18T14:48:16;93374.47;;;17.17;58.19
6435;BME280;3250;42.694;23.278;2022-11-18T14:50:44;93388.75;;;17.21;57.95
6435;BME280;3250;42.694;23.278;2022-11-18T14:53:11;93364.91;;;17.16;58.71
6435;BME280;3250;42.694;23.278;2022-11-18T14:55:36;93378.47;;;17.15;58.53
6435;BME280;3250;42.694;23.278;2022-11-18T14:58:02;93380.78;;;17.21;58.64
6435;BME280;3250;42.694;23.278;2022-11-18T15:00:28;93400.03;;;17.13;59.24
6435;BME280;3250;42.694;23.278;2022-11-18T15:02:53;93403.50;;;17.14;59.37
6435;BME280;3250;42.694;23.278;2022-11-18T15:05:18;93394.06;;;17.21;59.29
6435;BME280;3250;42.694;23.278;2022-11-18T15:07:44;93416.31;;;17.12;61.31
6435;BME280;3250;42.694;23.278;2022-11-18T15:10:12;93412.09;;;17.06;61.31
6435;BME280;3250;42.694;23.278;2022-11-18T15:12:39;93374.50;;;16.75;65.39
6435;BME280;3250;42.694;23.278;2022-11-18T15:15:05;93354.72;;;16.38;68.29
6435;BME280;3250;42.694;23.278;2022-11-18T15:17:30;93405.19;;;16.38;69.04
6435;BME280;3250;42.694;23.278;2022-11-18T15:19:56;93411.38;;;16.29;71.03
6435;BME280;3250;42.694;23.278;2022-11-18T15:22:22;93381.81;;;16.11;72.17